Main page
METAR-TAF:

METAR-TAF

Airports :

Luton Airport

Luton, England

latitude: 51-52N, longitude: 000-22W, elevation: 160 m

Current weather observation

The report was made 33 minutes ago, at 10:20 UTC
Wind 4 kt from the Southwest, varying between South and West
Temperature 21°C
Humidity 60%
Pressure 1020 hPa
Visibility 10 km or more
Few clouds at a height of 2700 ft

METAR: EGGW 231020Z AUTO 23004KT 180V280 9999 FEW027 21/13 Q1020

Time: 11:53 (10:53 UTC)

Forecast

The report was made 5 hours and 51 minutes ago, at 05:02 UTC
Forecast valid from 23 at 06 UTC to 24 at 06 UTC
Wind 5 kt from the West
Visibility 10 km or more
Scattered clouds at a height of 3500 ft
Probability 30%
from 24 at 02 UTC to 24 at 06 UTC
Visibility: 8000 m

TAF: EGGW 230502Z 2306/2406 26005KT 9999 SCT035 PROB30 2402/2406 8000

Weather observations and forecasts of more than 4000 airports (METAR and TAF reports).

The available stations are represented by yellow and red dots on the map.

Hover mouse over dot to see the name of the station.

Then click to see weather observations and forecasts.

To change the map : click on the green buttons with a black cross to zoom in, on the green button with a dash to zoom out, or on the green arrows for adjacent maps.


METAR-TAF: